createdAt,value
2022-10-19T00:00:15.458Z,62.19
2022-10-19T00:02:41.777Z,61.93
2022-10-19T00:05:08.105Z,62.24
2022-10-19T00:07:34.713Z,62.14
2022-10-19T00:10:01.295Z,61.88
2022-10-19T00:12:27.613Z,62.03
2022-10-19T00:14:53.988Z,62.04
2022-10-19T00:17:20.329Z,62.20
2022-10-19T00:19:46.637Z,61.98
2022-10-19T00:22:14.064Z,62.19
2022-10-19T00:24:40.609Z,61.80
2022-10-19T00:27:06.929Z,62.07
2022-10-19T00:29:33.269Z,62.24
2022-10-19T00:31:59.608Z,62.09
2022-10-19T00:34:25.935Z,61.80
2022-10-19T00:36:52.283Z,62.18
2022-10-19T00:39:18.629Z,61.83
2022-10-19T00:41:45.391Z,62.13
2022-10-19T00:44:11.623Z,61.75
2022-10-19T00:46:41.408Z,62.12
2022-10-19T00:49:10.796Z,62.16
2022-10-19T00:51:38.799Z,62.11
2022-10-19T00:54:05.464Z,61.98
2022-10-19T00:56:31.796Z,61.85
2022-10-19T00:58:58.110Z,62.03
2022-10-19T01:01:24.529Z,62.06
2022-10-19T01:03:50.869Z,61.85
2022-10-19T01:06:17.194Z,61.88
2022-10-19T01:08:43.514Z,62.07
2022-10-19T01:11:28.621Z,62.18
2022-10-19T01:14:14.448Z,62.03
2022-10-19T01:16:44.273Z,61.71
2022-10-19T01:19:18.321Z,62.04
2022-10-19T01:21:50.924Z,61.80
2022-10-19T01:24:28.518Z,62.07
2022-10-19T01:27:13.759Z,61.84
2022-10-19T01:29:59.051Z,61.82
2022-10-19T01:32:34.374Z,61.90
2022-10-19T01:35:06.329Z,61.99
2022-10-19T01:37:38.427Z,61.86
2022-10-19T01:40:12.040Z,61.84
2022-10-19T01:42:42.341Z,61.82
2022-10-19T01:45:11.842Z,61.89
2022-10-19T01:47:48.583Z,61.88
2022-10-19T01:50:16.199Z,62.01
2022-10-19T01:52:42.526Z,61.77
2022-10-19T01:55:09.385Z,61.75
2022-10-19T01:57:37.113Z,61.74
2022-10-19T02:00:07.365Z,61.82
2022-10-19T02:02:38.513Z,61.97
2022-10-19T02:05:04.891Z,61.96
2022-10-19T02:07:31.241Z,61.93
2022-10-19T02:09:57.545Z,61.91
2022-10-19T02:12:24.152Z,62.08
2022-10-19T02:14:50.879Z,61.77
2022-10-19T02:17:18.356Z,61.92
2022-10-19T02:19:44.699Z,62.03
2022-10-19T02:22:11.397Z,61.86
2022-10-19T02:24:37.802Z,61.88
2022-10-19T02:27:05.453Z,61.73
2022-10-19T02:29:32.362Z,61.72
2022-10-19T02:31:58.691Z,61.88
2022-10-19T02:34:25.018Z,61.64
2022-10-19T02:36:51.370Z,61.73
2022-10-19T02:39:17.690Z,61.71
2022-10-19T02:42:01.205Z,61.61
2022-10-19T02:44:37.705Z,61.73
2022-10-19T02:47:09.909Z,61.64
2022-10-19T02:49:36.222Z,61.61
2022-10-19T02:52:03.690Z,61.73
2022-10-19T02:54:30.026Z,61.66
2022-10-19T02:56:56.347Z,61.54
2022-10-19T02:59:22.721Z,61.62
2022-10-19T03:01:49.057Z,61.68
2022-10-19T03:04:15.423Z,61.56
2022-10-19T03:06:41.752Z,61.63
2022-10-19T03:09:08.093Z,61.63
2022-10-19T03:11:34.423Z,61.49
2022-10-19T03:14:00.739Z,61.35
2022-10-19T03:16:27.061Z,61.39
2022-10-19T03:18:54.264Z,61.51
2022-10-19T03:21:20.631Z,61.68
2022-10-19T03:23:46.950Z,61.83
2022-10-19T03:26:13.846Z,61.79
2022-10-19T03:28:40.262Z,61.53
2022-10-19T03:31:06.626Z,61.79
2022-10-19T03:33:32.947Z,61.48
2022-10-19T03:36:19.786Z,61.79
2022-10-19T03:38:46.102Z,61.49
2022-10-19T03:41:12.505Z,61.91
2022-10-19T03:43:38.846Z,61.72
2022-10-19T03:46:05.161Z,61.69
2022-10-19T03:48:31.464Z,61.64
2022-10-19T03:50:58.403Z,61.86
2022-10-19T03:53:24.728Z,61.79
2022-10-19T03:55:51.062Z,61.92
2022-10-19T03:58:17.382Z,61.86
2022-10-19T04:00:43.748Z,61.69
2022-10-19T04:03:10.102Z,61.94
2022-10-19T04:05:36.410Z,62.00
2022-10-19T04:08:02.734Z,62.03
2022-10-19T04:10:30.633Z,61.80
2022-10-19T04:12:56.946Z,62.05
2022-10-19T04:15:23.262Z,61.73
2022-10-19T04:17:49.581Z,61.99
2022-10-19T04:20:15.974Z,62.14
2022-10-19T04:22:42.294Z,62.28
2022-10-19T04:25:09.267Z,62.32
2022-10-19T04:27:35.967Z,62.25
2022-10-19T04:30:02.468Z,62.51
2022-10-19T04:32:28.794Z,62.47
2022-10-19T04:34:55.106Z,62.56
2022-10-19T04:37:21.423Z,62.58
2022-10-19T04:39:47.738Z,62.44
2022-10-19T04:42:14.059Z,62.74
2022-10-19T04:44:40.422Z,62.79
2022-10-19T04:47:06.738Z,62.50
2022-10-19T04:49:33.053Z,62.84
2022-10-19T04:51:59.369Z,63.03
2022-10-19T04:54:25.711Z,62.83
2022-10-19T04:56:53.807Z,62.73
2022-10-19T05:00:00.308Z,58.79
2022-10-19T05:02:26.621Z,58.55
2022-10-19T05:04:52.935Z,58.17
2022-10-19T05:07:19.257Z,58.34
2022-10-19T05:09:45.624Z,58.93
2022-10-19T05:12:11.955Z,59.67
2022-10-19T05:14:41.913Z,59.86
2022-10-19T05:17:09.245Z,60.21
2022-10-19T05:19:35.550Z,60.18
2022-10-19T05:22:01.880Z,60.13
2022-10-19T05:24:28.186Z,60.45
2022-10-19T05:26:54.511Z,60.61
2022-10-19T05:29:20.825Z,60.54
2022-10-19T05:31:47.179Z,60.43
2022-10-19T05:34:13.488Z,60.83
2022-10-19T05:36:39.950Z,61.06
2022-10-19T05:39:07.169Z,61.06
2022-10-19T05:41:33.561Z,60.92
2022-10-19T05:44:00.745Z,61.21
2022-10-19T05:46:27.450Z,61.33
2022-10-19T05:48:54.373Z,61.25
2022-10-19T05:51:20.814Z,61.51
2022-10-19T05:53:47.130Z,61.27
2022-10-19T05:56:17.104Z,61.37
2022-10-19T05:58:43.425Z,61.39
2022-10-19T06:01:09.746Z,61.45
2022-10-19T06:03:36.071Z,61.69
2022-10-19T06:06:05.670Z,61.65
2022-10-19T06:08:32.012Z,61.88
2022-10-19T06:11:08.212Z,61.92
2022-10-19T06:13:34.556Z,61.85
2022-10-19T06:16:00.868Z,62.14
2022-10-19T06:18:27.210Z,62.02
2022-10-19T06:20:53.539Z,62.46
2022-10-19T06:23:19.840Z,62.39
2022-10-19T06:25:46.214Z,62.17
2022-10-19T06:28:12.530Z,62.60
2022-10-19T06:30:40.115Z,62.70
2022-10-19T06:33:06.455Z,62.70
2022-10-19T06:35:32.887Z,62.80
2022-10-19T06:37:59.193Z,62.86
2022-10-19T06:40:25.573Z,62.87
2022-10-19T06:42:51.927Z,62.74
2022-10-19T06:45:18.275Z,62.92
2022-10-19T06:47:44.674Z,62.82
2022-10-19T06:50:11.265Z,62.63
2022-10-19T06:52:38.149Z,62.54
2022-10-19T06:55:04.593Z,62.75
2022-10-19T06:57:30.915Z,62.71
2022-10-19T06:59:57.261Z,62.83
2022-10-19T07:02:23.575Z,62.86
2022-10-19T07:04:49.911Z,62.73
2022-10-19T07:07:16.232Z,62.62
2022-10-19T07:09:42.548Z,62.68
2022-10-19T07:12:10.727Z,62.15
2022-10-19T07:14:39.430Z,62.14
2022-10-19T07:17:06.143Z,61.66
2022-10-19T07:19:32.471Z,61.33
2022-10-19T07:21:58.769Z,61.42
2022-10-19T07:24:25.140Z,61.63
2022-10-19T07:26:51.450Z,61.59
2022-10-19T07:29:17.762Z,60.35
2022-10-19T07:31:44.087Z,59.04
2022-10-19T07:34:11.157Z,58.58
2022-10-19T07:36:37.824Z,57.33
2022-10-19T07:39:05.380Z,56.24
2022-10-19T07:41:31.688Z,55.48
2022-10-19T07:43:58.109Z,55.05
2022-10-19T07:46:25.661Z,54.79
2022-10-19T07:48:52.647Z,55.94
2022-10-19T07:51:19.006Z,55.83
2022-10-19T07:53:45.371Z,55.75
2022-10-19T07:56:20.717Z,55.70
2022-10-19T07:58:47.159Z,55.70
2022-10-19T08:01:14.213Z,54.42
2022-10-19T08:04:31.810Z,53.19
2022-10-19T08:06:26.830Z,53.69
2022-10-19T08:08:53.320Z,54.41
2022-10-19T08:11:20.628Z,54.56
2022-10-19T08:13:47.307Z,54.98
2022-10-19T08:16:29.956Z,55.38
2022-10-19T08:18:57.634Z,55.50
2022-10-19T08:21:24.330Z,55.59
2022-10-19T08:23:50.655Z,55.55
2022-10-19T08:26:16.974Z,55.88
2022-10-19T08:28:43.302Z,55.79
2022-10-19T08:31:19.443Z,55.69
2022-10-19T08:33:45.773Z,55.94
2022-10-19T08:36:12.743Z,55.97
2022-10-19T08:38:39.090Z,56.00
2022-10-19T08:41:28.581Z,56.07
2022-10-19T08:43:56.821Z,56.06
2022-10-19T08:46:24.876Z,56.29
2022-10-19T08:48:51.215Z,56.39
2022-10-19T08:51:17.545Z,56.13
2022-10-19T08:53:45.986Z,56.44
2022-10-19T08:56:49.489Z,56.48
2022-10-19T08:59:32.519Z,56.16
2022-10-19T09:01:59.653Z,56.20
2022-10-19T09:04:26.501Z,56.58
2022-10-19T09:07:11.656Z,56.24
2022-10-19T09:09:39.838Z,56.55
2022-10-19T09:12:06.440Z,56.41
2022-10-19T09:14:38.588Z,56.52
2022-10-19T09:17:09.152Z,56.81
2022-10-19T09:19:35.467Z,56.92
2022-10-19T09:22:02.851Z,57.36
2022-10-19T09:24:30.332Z,57.78
2022-10-19T09:26:59.962Z,56.00
2022-10-19T09:29:38.203Z,54.10
2022-10-19T09:32:05.379Z,54.71
2022-10-19T09:34:38.297Z,54.92
2022-10-19T09:37:04.677Z,55.25
2022-10-19T09:39:31.084Z,55.24
2022-10-19T09:42:04.688Z,55.35
2022-10-19T09:44:31.010Z,55.67
2022-10-19T09:47:10.205Z,55.75
2022-10-19T09:49:39.245Z,56.06
2022-10-19T09:52:05.558Z,56.39
2022-10-19T09:54:35.403Z,56.88
2022-10-19T09:57:01.778Z,57.20
2022-10-19T09:59:33.620Z,56.82
2022-10-19T10:02:05.950Z,57.20
2022-10-19T10:04:32.294Z,57.57
2022-10-19T10:06:58.620Z,57.60
2022-10-19T10:09:26.671Z,57.57
2022-10-19T10:14:29.164Z,57.49
2022-10-19T10:17:18.874Z,57.72
2022-10-19T10:20:00.254Z,58.00
2022-10-19T10:22:27.298Z,58.19
2022-10-19T10:24:54.002Z,58.03
2022-10-19T10:27:33.783Z,58.19
2022-10-19T10:30:02.548Z,58.04
2022-10-19T10:32:28.991Z,58.06
2022-10-19T10:35:01.987Z,58.23
2022-10-19T10:37:29.781Z,58.40
2022-10-19T10:39:59.040Z,58.31
2022-10-19T10:42:29.303Z,58.41
2022-10-19T10:44:56.394Z,58.16
2022-10-19T10:47:22.708Z,58.57
2022-10-19T10:49:58.652Z,58.40
2022-10-19T10:52:25.254Z,58.27
2022-10-19T10:55:01.481Z,54.31
2022-10-19T10:57:32.486Z,52.77
2022-10-19T11:00:07.999Z,53.26
2022-10-19T11:02:36.078Z,53.85
2022-10-19T11:05:05.115Z,55.23
2022-10-19T11:07:32.478Z,54.97
2022-10-19T11:10:00.068Z,55.87
2022-10-19T11:12:39.722Z,56.26
2022-10-19T11:15:07.133Z,56.62
2022-10-19T11:17:34.086Z,56.94
2022-10-19T11:20:00.585Z,57.22
2022-10-19T11:22:31.969Z,57.30
2022-10-19T11:24:58.193Z,56.68
2022-10-19T11:27:45.202Z,56.87
2022-10-19T11:30:19.016Z,57.21
2022-10-19T11:33:04.072Z,57.29
2022-10-19T11:35:39.216Z,57.23
2022-10-19T11:38:20.160Z,56.56
2022-10-19T11:41:22.331Z,55.43
2022-10-19T11:44:07.093Z,51.78
2022-10-19T11:46:52.049Z,52.31
2022-10-19T11:49:28.329Z,52.91
2022-10-19T11:51:57.551Z,54.11
2022-10-19T11:54:36.603Z,54.52
2022-10-19T11:57:13.286Z,54.46
2022-10-19T11:59:43.295Z,55.02
2022-10-19T12:02:31.096Z,55.80
2022-10-19T12:04:57.731Z,55.63
2022-10-19T12:07:30.209Z,55.56
2022-10-19T12:10:04.955Z,55.94
2022-10-19T12:12:38.281Z,56.08
2022-10-19T12:15:17.163Z,56.11
2022-10-19T12:17:44.567Z,56.18
2022-10-19T12:20:18.898Z,56.48
2022-10-19T12:22:46.220Z,56.75
2022-10-19T12:25:12.808Z,56.62
2022-10-19T12:27:39.121Z,56.73
2022-10-19T12:30:06.971Z,56.79
2022-10-19T12:32:35.917Z,57.09
2022-10-19T12:35:17.236Z,56.69
2022-10-19T12:37:49.837Z,56.38
2022-10-19T12:40:37.077Z,56.46
2022-10-19T12:43:05.437Z,56.37
2022-10-19T12:45:35.704Z,56.64
2022-10-19T12:48:08.060Z,56.55
2022-10-19T12:50:49.720Z,56.42
2022-10-19T12:53:30.565Z,56.76
2022-10-19T12:56:00.446Z,57.13
2022-10-19T12:58:26.772Z,57.33
2022-10-19T13:00:59.424Z,57.42
2022-10-19T13:03:29.022Z,57.44
2022-10-19T13:05:59.989Z,57.50
2022-10-19T13:08:27.382Z,57.34
2022-10-19T13:11:03.738Z,57.46
2022-10-19T13:13:49.879Z,57.51
2022-10-19T13:16:28.408Z,57.50
2022-10-19T13:19:06.081Z,57.67
2022-10-19T13:21:51.231Z,57.83
2022-10-19T13:24:25.715Z,57.76
2022-10-19T13:27:04.113Z,57.71
2022-10-19T13:29:39.633Z,58.03
2022-10-19T13:32:24.710Z,58.06
2022-10-19T13:34:51.068Z,58.08
2022-10-19T13:37:17.649Z,57.99
2022-10-19T13:39:43.956Z,58.18
2022-10-19T13:42:25.977Z,58.34
2022-10-19T13:44:52.975Z,58.39
2022-10-19T13:47:22.821Z,58.04
2022-10-19T13:50:21.647Z,58.41
2022-10-19T13:52:57.298Z,58.43
2022-10-19T13:55:23.534Z,58.05
2022-10-19T13:58:13.830Z,58.36
2022-10-19T14:01:02.622Z,58.43
2022-10-19T14:03:31.577Z,58.40
2022-10-19T14:06:16.771Z,58.51
2022-10-19T14:09:01.763Z,58.53
2022-10-19T14:11:31.176Z,58.44
2022-10-19T14:14:14.552Z,58.43
2022-10-19T14:16:47.788Z,58.60
2022-10-19T14:19:14.259Z,58.33
2022-10-19T14:21:41.185Z,58.43
2022-10-19T14:24:21.125Z,58.69
2022-10-19T14:26:47.438Z,58.58
2022-10-19T14:29:13.773Z,58.57
2022-10-19T14:31:40.077Z,58.80
2022-10-19T14:34:07.455Z,58.91
2022-10-19T14:36:35.527Z,58.67
2022-10-19T14:39:01.853Z,58.86
2022-10-19T14:41:28.157Z,58.55
2022-10-19T14:43:58.603Z,58.91
2022-10-19T14:46:31.335Z,58.65
2022-10-19T14:49:01.262Z,58.98
2022-10-19T14:51:39.509Z,58.75
2022-10-19T14:54:05.763Z,58.66
2022-10-19T14:56:31.993Z,58.90
2022-10-19T14:59:05.623Z,58.68
2022-10-19T15:01:31.962Z,58.68
2022-10-19T15:03:58.355Z,58.75
2022-10-19T15:06:28.667Z,58.84
2022-10-19T15:08:55.670Z,58.98
2022-10-19T15:11:23.649Z,58.99
2022-10-19T15:13:51.810Z,58.78
2022-10-19T15:16:28.853Z,58.86
2022-10-19T15:18:55.347Z,59.01
2022-10-19T15:21:21.799Z,58.68
2022-10-19T15:23:48.777Z,58.89
2022-10-19T15:26:17.362Z,59.03
2022-10-19T15:28:43.879Z,59.03
2022-10-19T15:31:19.921Z,59.21
2022-10-19T15:33:53.214Z,58.95
2022-10-19T15:36:20.007Z,59.40
2022-10-19T15:38:47.139Z,59.33
2022-10-19T15:41:20.804Z,59.08
2022-10-19T15:43:49.275Z,59.08
2022-10-19T15:46:25.812Z,59.28
2022-10-19T15:48:55.282Z,59.22
2022-10-19T15:51:24.544Z,59.40
2022-10-19T15:53:51.370Z,59.47
2022-10-19T15:56:17.678Z,59.82
2022-10-19T15:58:43.991Z,59.51
2022-10-19T16:01:11.550Z,59.54
2022-10-19T16:03:37.870Z,59.55
2022-10-19T16:06:04.282Z,59.75
2022-10-19T16:08:30.721Z,59.98
2022-10-19T16:10:57.045Z,59.98
2022-10-19T16:13:23.357Z,59.88
2022-10-19T16:15:56.799Z,59.94
2022-10-19T16:18:36.550Z,59.81
2022-10-19T16:21:02.848Z,59.90
2022-10-19T16:23:30.723Z,60.04
2022-10-19T16:25:57.047Z,60.08
2022-10-19T16:28:23.475Z,60.07
2022-10-19T16:30:53.078Z,59.90
2022-10-19T16:33:19.407Z,59.89
2022-10-19T16:35:45.713Z,60.01
2022-10-19T16:38:12.266Z,59.86
2022-10-19T16:40:38.575Z,59.73
2022-10-19T16:43:04.893Z,60.08
2022-10-19T16:45:31.267Z,59.92
2022-10-19T16:47:57.595Z,60.06
2022-10-19T16:50:23.906Z,60.01
2022-10-19T16:53:12.172Z,60.02
2022-10-19T16:55:39.646Z,59.60
2022-10-19T16:58:05.978Z,59.09
2022-10-19T17:00:32.322Z,58.99
2022-10-19T17:02:58.637Z,59.19
2022-10-19T17:05:24.956Z,59.37
2022-10-19T17:07:51.274Z,59.41
2022-10-19T17:10:17.601Z,59.19
2022-10-19T17:12:43.972Z,59.45
2022-10-19T17:15:37.541Z,59.48
2022-10-19T17:17:57.989Z,59.48
2022-10-19T17:20:24.317Z,59.49
2022-10-19T17:22:51.694Z,59.35
2022-10-19T17:25:18.024Z,59.45
2022-10-19T17:27:44.352Z,59.75
2022-10-19T17:30:10.742Z,59.81
2022-10-19T17:32:37.305Z,59.90
2022-10-19T17:35:03.820Z,59.78
2022-10-19T17:37:30.151Z,59.38
2022-10-19T17:39:56.490Z,58.95
2022-10-19T17:42:22.814Z,58.78
2022-10-19T17:44:49.109Z,58.86
2022-10-19T17:47:15.433Z,58.45
2022-10-19T17:49:41.749Z,58.50
2022-10-19T17:52:08.078Z,58.60
2022-10-19T17:54:43.474Z,58.38
2022-10-19T17:57:20.690Z,58.44
2022-10-19T17:59:53.028Z,58.31
2022-10-19T18:02:19.663Z,59.08
2022-10-19T18:04:46.115Z,59.09
2022-10-19T18:07:12.496Z,59.38
2022-10-19T18:09:38.798Z,58.69
2022-10-19T18:12:07.583Z,59.56
2022-10-19T18:14:34.024Z,59.05
2022-10-19T18:17:00.337Z,58.88
2022-10-19T18:19:26.650Z,58.85
2022-10-19T18:21:53.372Z,58.11
2022-10-19T18:24:21.228Z,57.77
2022-10-19T18:26:48.019Z,57.66
2022-10-19T18:29:18.147Z,58.32
2022-10-19T18:31:44.626Z,58.55
2022-10-19T18:34:12.781Z,59.03
2022-10-19T18:36:39.109Z,59.50
2022-10-19T18:39:05.426Z,59.34
2022-10-19T18:41:31.817Z,59.32
2022-10-19T18:44:03.091Z,60.34
2022-10-19T18:46:29.419Z,59.33
2022-10-19T18:48:55.770Z,59.51
2022-10-19T18:51:22.107Z,59.22
2022-10-19T18:53:48.426Z,58.91
2022-10-19T18:56:15.425Z,58.95
2022-10-19T18:58:41.834Z,58.99
2022-10-19T19:01:18.049Z,59.00
2022-10-19T19:03:45.156Z,59.26
2022-10-19T19:06:15.059Z,59.27
2022-10-19T19:08:41.484Z,59.12
2022-10-19T19:11:11.631Z,58.94
2022-10-19T19:13:38.083Z,58.87
2022-10-19T19:16:04.570Z,58.61
2022-10-19T19:18:33.641Z,58.69
2022-10-19T19:21:03.365Z,58.82
2022-10-19T19:23:29.839Z,58.61
2022-10-19T19:25:56.150Z,58.64
2022-10-19T19:28:22.478Z,58.57
2022-10-19T19:30:48.822Z,58.96
2022-10-19T19:33:15.147Z,58.78
2022-10-19T19:35:41.988Z,58.88
2022-10-19T19:38:08.380Z,58.58
2022-10-19T19:40:34.677Z,58.67
2022-10-19T19:43:01.115Z,58.48
2022-10-19T19:45:27.435Z,58.58
2022-10-19T19:47:53.753Z,58.99
2022-10-19T19:50:20.076Z,58.70
2022-10-19T19:52:48.352Z,58.69
2022-10-19T19:55:14.663Z,53.67
2022-10-19T19:57:40.986Z,53.79
2022-10-19T20:00:07.584Z,55.17
2022-10-19T20:02:38.978Z,55.07
2022-10-19T20:05:05.291Z,55.97
2022-10-19T20:07:31.613Z,56.77
2022-10-19T20:09:57.942Z,57.14
2022-10-19T20:12:24.256Z,56.87
2022-10-19T20:14:50.557Z,57.33
2022-10-19T20:17:16.901Z,57.47
2022-10-19T20:19:43.255Z,57.57
2022-10-19T20:22:09.598Z,57.85
2022-10-19T20:24:37.647Z,57.56
2022-10-19T20:27:04.190Z,57.74
2022-10-19T20:29:30.502Z,58.06
2022-10-19T20:31:56.927Z,58.09
2022-10-19T20:34:24.030Z,58.02
2022-10-19T20:36:50.488Z,58.07
2022-10-19T20:39:16.806Z,57.99
2022-10-19T20:41:43.193Z,58.30
2022-10-19T20:44:09.541Z,58.38
2022-10-19T20:46:36.955Z,58.43
2022-10-19T20:49:03.469Z,58.31
2022-10-19T20:51:31.865Z,58.27
2022-10-19T20:53:58.610Z,58.07
2022-10-19T20:56:25.885Z,58.15
2022-10-19T20:58:55.853Z,58.32
2022-10-19T21:01:22.724Z,58.16
2022-10-19T21:03:49.562Z,58.24
2022-10-19T21:06:15.890Z,58.17
2022-10-19T21:08:42.247Z,58.39
2022-10-19T21:11:15.407Z,58.20
2022-10-19T21:13:41.964Z,58.19
2022-10-19T21:16:09.130Z,58.24
2022-10-19T21:18:35.558Z,58.22
2022-10-19T21:21:09.330Z,58.44
2022-10-19T21:23:35.650Z,58.42
2022-10-19T21:26:01.967Z,58.57
2022-10-19T21:28:28.289Z,58.49
2022-10-19T21:30:54.666Z,58.44
2022-10-19T21:33:20.990Z,58.14
2022-10-19T21:35:47.333Z,58.31
2022-10-19T21:38:13.680Z,58.27
2022-10-19T21:40:40.015Z,58.29
2022-10-19T21:43:06.334Z,58.28
2022-10-19T21:45:32.679Z,58.22
2022-10-19T21:47:59.007Z,58.34
2022-10-19T21:50:25.337Z,58.29
2022-10-19T21:52:51.698Z,58.36
2022-10-19T21:55:18.032Z,58.26
2022-10-19T21:57:44.375Z,58.50
2022-10-19T22:00:10.830Z,58.31
2022-10-19T22:02:39.300Z,58.36
2022-10-19T22:05:05.735Z,58.35
2022-10-19T22:07:32.180Z,58.28
2022-10-19T22:09:58.581Z,58.45
2022-10-19T22:12:24.897Z,58.15
2022-10-19T22:14:51.213Z,58.35
2022-10-19T22:17:17.537Z,58.22
2022-10-19T22:19:43.839Z,58.47
2022-10-19T22:22:10.158Z,58.23
2022-10-19T22:24:36.467Z,58.41
2022-10-19T22:27:02.782Z,58.53
2022-10-19T22:29:29.121Z,58.31
2022-10-19T22:31:55.479Z,58.36
2022-10-19T22:34:21.827Z,58.53
2022-10-19T22:36:48.142Z,58.40
2022-10-19T22:39:14.456Z,58.31
2022-10-19T22:41:40.782Z,58.29
2022-10-19T22:44:07.115Z,58.52
2022-10-19T22:46:33.476Z,58.50
2022-10-19T22:48:59.885Z,58.35
2022-10-19T22:51:26.274Z,58.55
2022-10-19T22:53:52.604Z,58.27
2022-10-19T22:56:18.946Z,58.43
2022-10-19T22:58:45.311Z,58.37
2022-10-19T23:01:12.327Z,58.46
2022-10-19T23:03:41.608Z,58.30
2022-10-19T23:06:08.347Z,58.32
2022-10-19T23:08:34.701Z,58.65
2022-10-19T23:11:01.067Z,58.71
2022-10-19T23:13:27.393Z,58.59
2022-10-19T23:15:53.718Z,58.37
2022-10-19T23:18:20.060Z,58.60
2022-10-19T23:20:53.723Z,58.34
2022-10-19T23:23:20.053Z,58.35
2022-10-19T23:25:56.122Z,58.50
2022-10-19T23:28:22.446Z,58.62
2022-10-19T23:30:50.228Z,58.39
2022-10-19T23:33:16.689Z,58.38
2022-10-19T23:35:43.027Z,58.55
2022-10-19T23:38:09.477Z,58.58
2022-10-19T23:40:35.911Z,58.63
2022-10-19T23:43:02.263Z,58.57
2022-10-19T23:45:29.772Z,58.45
2022-10-19T23:47:56.249Z,58.49
2022-10-19T23:50:22.558Z,58.68
2022-10-19T23:52:48.873Z,58.56
2022-10-19T23:55:15.187Z,58.44
2022-10-19T23:57:41.500Z,58.51
